Geraldton Greenstone Regional Airport
CYGQ : rendu visible

Aérodrome :











RETROUVEZ-NOUS SUR...

 
LOGIN :

S'inscrire | Disclaimer

   EN    FR    IT 

 









Légende :    VFR   VFR Marginal   IFR   IFR Intensif   IFR Très Intensif
Visi : 
Plafond : 
>= 8 km
>= 3000ft
5 à 8 km
1000 à 3000 ft
1500m à 5 km
500 à 1000 ft
800 à 1500m
200 à 500 ft
< 800m
< 200 ft
Symboles :   Orages  Brouillard  Fortes neiges  Fortes précipitations  Vent > 20 kt






- Altitude de l'aérodrome : 1144 ft
- Code IATA : YGQ


CYGQ - Geraldton Greenstone Regional

DERNIER METAR :
  • 251324Z 26003KT 6SM BR OVC009 M01/M01 A2982 RMK ST8 CIG RAG SLP121

METARs EXPIRÉS :
  • 251300Z 25004KT 10SM -SN BKN008 OVC015 M01/M01 A2982 RMK SF5SC3 SLP120
  • 251200Z 25005KT 8SM -SN BKN008 OVC015 M01/M01 A2980 RMK SF6SC2 SLP113
  • 251100Z 25004KT 8SM -SN OVC008 M01/M01 A2979 RMK SF8 SLP110

TAF AMD TAF CYGQ
Valide du 25 à 08h jusqu'au 25 à 20h UTC


250808Z 2508/2520 VRB03KT P6SM -SN SCT008 OVC015
TEMPO 2508/2514 3SM -SN BR BKN008 OVC015
PROB30 2508/2512 2SM BR BKN005
FM251400 26005KT P6SM -SN BKN015 OVC025
TEMPO 2514/2518 P6SM NSW SCT015 OVC025
FM251800 24007KT P6SM SCT015 OVC025 RMK NXT FCST BY 251400Z
FIR CZWG / Amérique du Nord



MET'MAP, la Météo Aéronautique d'un coup d'oeil ! - Copyright ORBIFLY Décembre 2007 - Disclaimer

ORBIFLY MET'MAP TEAM :

Programmation & Développement : Alexandra Zaïnal
Sur une idée originale de : Baudouin d'Aumeries
Assistance à la programmation : Marc-Olivier Méhu
Soutien technique & logistique : Manuel Goepfert

Contact : metmap@orbifly.com




SOURCES & CREDITS :

   NOAA       Earth
Advisory